Time;durP1;ratioP1;P1;durP2;ratioP2;P2;SDS_P1;SDS_P2;PMS_P1;PMS_P2;Temp;Humidity;BMP_temperature;BMP_pressure;BME280_temperature;BME280_humidity;BME280_pressure;Samples;Min_cycle;Max_cycle;Signal;HPM_P1;HPM_P2
2023/01/10 03:02:44;;;;;;;10.43;9.83;;;4.60;99.90;;;;;;5106843;23;20224;-79
2023/01/10 03:05:21;;;;;;;10.67;10.07;;;4.60;99.90;;;;;;4904913;29;20195;-79
2023/01/10 03:07:55;;;;;;;10.60;10.00;;;4.60;99.90;;;;;;4904875;29;20667;-79
2023/01/10 03:10:28;;;;;;;10.80;10.10;;;4.60;99.90;;;;;;4905244;29;20212;-78
2023/01/10 03:12:58;;;;;;;10.70;10.10;;;4.60;99.90;;;;;;4889939;29;20265;-79
2023/01/10 03:15:29;;;;;;;10.53;9.97;;;4.60;99.90;;;;;;4883947;29;20616;-78
2023/01/10 03:18:00;;;;;;;10.70;10.10;;;4.50;99.90;;;;;;4885118;29;20213;-79
2023/01/10 03:20:29;;;;;;;10.40;9.70;;;4.60;99.90;;;;;;4887480;29;20204;-79
2023/01/10 03:22:56;;;;;;;10.80;10.20;;;4.60;99.90;;;;;;4886501;29;20256;-79
2023/01/10 03:25:28;;;;;;;10.70;10.10;;;4.60;99.90;;;;;;4878580;29;20213;-79
2023/01/10 03:27:58;;;;;;;10.60;10.00;;;4.50;99.90;;;;;;4893502;29;20208;-79
2023/01/10 03:30:29;;;;;;;10.80;10.30;;;4.60;99.90;;;;;;4881007;29;20209;-78
2023/01/10 03:32:59;;;;;;;10.73;10.13;;;4.60;99.90;;;;;;4891111;29;20264;-78
2023/01/10 03:35:35;;;;;;;10.83;10.13;;;4.60;99.90;;;;;;4881210;29;20292;-79
2023/01/10 03:38:07;;;;;;;11.20;10.60;;;4.60;99.90;;;;;;4886116;29;20209;-78
2023/01/10 03:40:41;;;;;;;10.63;10.07;;;4.60;99.90;;;;;;4886876;29;20244;-79
2023/01/10 03:46:00;;;;;;;10.70;10.10;;;4.60;99.90;;;;;;4885149;29;20197;-79
2023/01/10 03:48:31;;;;;;;10.80;10.30;;;4.60;99.90;;;;;;4885547;29;20627;-78
2023/01/10 03:51:00;;;;;;;11.10;10.20;;;4.60;99.90;;;;;;4884841;29;20220;-78
2023/01/10 03:53:27;;;;;;;10.37;9.87;;;4.60;99.90;;;;;;4884881;29;20204;-79
2023/01/10 03:55:54;;;;;;;10.60;10.10;;;4.60;99.90;;;;;;4881606;29;20202;-78
2023/01/10 03:58:21;;;;;;;10.37;9.87;;;4.50;99.90;;;;;;4878705;29;20249;-79
2023/01/10 04:00:48;;;;;;;11.53;10.93;;;4.50;99.90;;;;;;4877537;29;20217;-80
2023/01/10 04:03:15;;;;;;;11.10;10.50;;;4.50;99.90;;;;;;4879131;29;20264;-80
2023/01/10 04:05:44;;;;;;;11.10;10.50;;;4.50;99.90;;;;;;4892194;29;20205;-79
2023/01/10 04:08:11;;;;;;;11.30;10.70;;;4.50;99.90;;;;;;4886777;29;20654;-80
2023/01/10 04:10:38;;;;;;;11.40;10.80;;;4.40;99.90;;;;;;4884148;29;20217;-79
2023/01/10 04:13:05;;;;;;;11.50;10.90;;;4.40;99.90;;;;;;4887891;29;20241;-80
2023/01/10 04:15:32;;;;;;;11.50;10.90;;;4.50;99.90;;;;;;4879612;29;20206;-78
2023/01/10 04:17:59;;;;;;;11.30;10.70;;;4.50;99.90;;;;;;4879966;29;20273;-79
2023/01/10 04:20:26;;;;;;;11.37;10.77;;;4.50;99.90;;;;;;4880960;29;20213;-80
2023/01/10 04:22:54;;;;;;;11.43;10.83;;;4.50;99.90;;;;;;4886706;29;20232;-80
2023/01/10 04:25:22;;;;;;;11.40;10.80;;;4.50;99.90;;;;;;4884163;29;20257;-80
2023/01/10 04:27:49;;;;;;;11.23;10.63;;;4.40;99.90;;;;;;4892540;29;20304;-81
2023/01/10 04:30:16;;;;;;;11.80;11.20;;;4.40;99.90;;;;;;4890873;29;20229;-80
2023/01/10 04:32:43;;;;;;;11.60;11.00;;;4.40;99.90;;;;;;4894345;29;20232;-81
2023/01/10 04:35:10;;;;;;;11.50;10.90;;;4.40;99.90;;;;;;4889230;29;20201;-79
2023/01/10 04:37:37;;;;;;;11.23;10.63;;;4.40;99.90;;;;;;4889525;29;20212;-79
2023/01/10 04:40:07;;;;;;;11.53;10.93;;;4.40;99.90;;;;;;4889708;29;20654;-79
2023/01/10 04:42:34;;;;;;;12.00;11.20;;;4.30;99.90;;;;;;4886355;29;20227;-79
2023/01/10 04:45:01;;;;;;;11.77;11.17;;;4.30;99.90;;;;;;4893665;29;20666;-79
2023/01/10 04:47:27;;;;;;;12.00;11.40;;;4.30;99.90;;;;;;4882163;29;20565;-79
2023/01/10 04:49:54;;;;;;;12.10;11.23;;;4.20;99.90;;;;;;4882078;29;20261;-78
2023/01/10 04:52:21;;;;;;;11.90;11.30;;;4.20;99.90;;;;;;4892524;29;20228;-79
2023/01/10 04:54:48;;;;;;;11.67;11.00;;;4.10;99.90;;;;;;4889891;29;20323;-79
2023/01/10 04:57:16;;;;;;;11.73;11.10;;;4.10;99.90;;;;;;4894480;29;20229;-79
2023/01/10 04:59:43;;;;;;;11.70;11.10;;;4.10;99.90;;;;;;4885024;29;20209;-78
2023/01/10 05:02:09;;;;;;;11.20;10.60;;;4.00;99.90;;;;;;4884409;29;20308;-78
2023/01/10 05:04:36;;;;;;;11.40;10.80;;;4.00;99.90;;;;;;4888460;29;20233;-79
2023/01/10 05:07:03;;;;;;;11.57;10.87;;;3.90;99.90;;;;;;4897728;29;20265;-78
2023/01/10 05:09:30;;;;;;;11.63;11.03;;;3.90;99.90;;;;;;4889064;29;20202;-79
2023/01/10 05:11:57;;;;;;;12.17;11.30;;;3.90;99.90;;;;;;4889064;29;20224;-78
2023/01/10 05:14:25;;;;;;;11.80;11.20;;;4.00;99.90;;;;;;4888603;29;20280;-80
2023/01/10 05:16:51;;;;;;;11.93;11.23;;;4.00;99.90;;;;;;4880271;29;20584;-78
2023/01/10 05:19:18;;;;;;;12.30;11.40;;;4.10;99.90;;;;;;4891569;29;20193;-78
2023/01/10 05:21:45;;;;;;;12.43;11.43;;;4.10;99.90;;;;;;4886761;29;20232;-79
2023/01/10 05:24:12;;;;;;;12.10;11.40;;;4.10;99.90;;;;;;4883058;29;20710;-79
2023/01/10 05:26:39;;;;;;;12.07;11.47;;;4.10;99.90;;;;;;4889838;29;20198;-78
2023/01/10 05:29:05;;;;;;;12.53;11.63;;;4.20;99.90;;;;;;4889693;29;20740;-77
2023/01/10 05:31:34;;;;;;;13.00;12.10;;;4.20;99.90;;;;;;4888972;29;20221;-78
2023/01/10 05:34:00;;;;;;;12.13;11.40;;;4.20;99.90;;;;;;4888767;29;20209;-78
2023/01/10 05:36:27;;;;;;;12.63;11.90;;;4.20;99.90;;;;;;4887800;29;20233;-78
2023/01/10 05:38:54;;;;;;;12.90;12.13;;;4.20;99.90;;;;;;4881697;29;20856;-78
2023/01/10 05:41:21;;;;;;;12.63;11.73;;;4.20;99.90;;;;;;4887691;29;20240;-77
2023/01/10 05:43:48;;;;;;;13.27;12.27;;;4.30;99.90;;;;;;4891594;29;20297;-78
2023/01/10 05:46:16;;;;;;;13.20;12.40;;;4.30;99.90;;;;;;4888775;29;20230;-78
2023/01/10 05:48:44;;;;;;;13.10;12.40;;;4.30;99.90;;;;;;4885385;29;20575;-78
2023/01/10 05:51:11;;;;;;;13.40;12.60;;;4.30;99.90;;;;;;4889218;29;20228;-78
2023/01/10 05:53:37;;;;;;;12.77;12.07;;;4.30;99.90;;;;;;4884629;29;20208;-78
2023/01/10 05:56:06;;;;;;;13.40;12.60;;;4.30;99.90;;;;;;4895666;29;20742;-78
2023/01/10 05:58:33;;;;;;;13.80;12.80;;;4.30;99.90;;;;;;4890243;29;20228;-78
2023/01/10 06:01:00;;;;;;;13.43;12.47;;;4.30;99.90;;;;;;4894379;29;20305;-78
2023/01/10 06:03:26;;;;;;;13.47;12.47;;;4.30;99.90;;;;;;4888405;29;20221;-78
2023/01/10 06:05:55;;;;;;;13.40;12.60;;;4.30;99.90;;;;;;4892573;29;20204;-79
2023/01/10 06:08:23;;;;;;;13.87;13.00;;;4.30;99.90;;;;;;4884277;29;20209;-78
2023/01/10 06:10:50;;;;;;;13.60;12.60;;;4.30;99.90;;;;;;4869324;29;20269;-78
2023/01/10 06:13:17;;;;;;;13.87;12.70;;;4.30;99.90;;;;;;4887952;29;20232;-78
2023/01/10 06:15:44;;;;;;;13.20;12.50;;;4.30;99.90;;;;;;4885408;29;20255;-79
2023/01/10 06:18:11;;;;;;;12.93;12.17;;;4.30;99.90;;;;;;4891463;29;20630;-78
2023/01/10 06:20:37;;;;;;;13.53;12.50;;;4.30;99.90;;;;;;4884954;29;20652;-79
2023/01/10 06:23:06;;;;;;;13.47;12.50;;;4.30;99.90;;;;;;4890987;29;20228;-78
2023/01/10 06:25:35;;;;;;;14.40;13.20;;;4.30;99.90;;;;;;4890718;29;20224;-78
2023/01/10 06:28:02;;;;;;;14.13;13.13;;;4.30;99.90;;;;;;4886273;29;20239;-78
2023/01/10 06:30:29;;;;;;;15.30;14.20;;;4.30;99.90;;;;;;4891179;29;20260;-78
2023/01/10 06:33:01;;;;;;;13.57;12.67;;;4.30;99.90;;;;;;4894302;29;20681;-78
2023/01/10 06:35:28;;;;;;;14.17;13.27;;;4.20;99.90;;;;;;4890133;29;20257;-78
2023/01/10 06:37:55;;;;;;;14.87;13.70;;;4.20;99.90;;;;;;4883749;29;20225;-78
2023/01/10 06:40:23;;;;;;;13.93;12.73;;;4.10;99.90;;;;;;4889094;29;20216;-78
2023/01/10 06:42:50;;;;;;;14.33;13.37;;;4.00;99.90;;;;;;4885124;29;20247;-78
2023/01/10 06:45:17;;;;;;;14.60;13.60;;;4.00;99.90;;;;;;4892347;29;20213;-78
2023/01/10 06:47:44;;;;;;;14.87;13.93;;;3.90;99.90;;;;;;4888728;29;20197;-78
2023/01/10 06:50:12;;;;;;;15.70;14.60;;;3.80;99.90;;;;;;4888004;29;20227;-78
2023/01/10 06:52:39;;;;;;;15.53;14.53;;;3.90;99.90;;;;;;4892510;29;20280;-78
2023/01/10 06:55:07;;;;;;;16.67;15.17;;;3.90;99.90;;;;;;4890552;29;20231;-78
2023/01/10 06:57:37;;;;;;;17.50;14.90;;;3.90;99.90;;;;;;4881104;29;20628;-78
2023/01/10 07:00:05;;;;;;;15.70;14.60;;;3.90;99.90;;;;;;4889896;29;20228;-78
2023/01/10 07:02:32;;;;;;;15.33;14.20;;;4.00;99.90;;;;;;4880060;29;20294;-78
2023/01/10 07:04:58;;;;;;;14.87;13.77;;;4.00;99.90;;;;;;4887520;29;20217;-78
2023/01/10 07:07:25;;;;;;;14.10;12.97;;;4.10;99.90;;;;;;4878938;29;20214;-79
2023/01/10 07:09:52;;;;;;;14.33;13.33;;;4.10;99.90;;;;;;4877852;29;20674;-77
2023/01/10 07:12:19;;;;;;;14.00;13.00;;;4.10;99.90;;;;;;4891530;29;20263;-78
2023/01/10 07:14:53;;;;;;;14.00;13.00;;;4.10;99.90;;;;;;4891443;29;20200;-83
2023/01/10 07:17:20;;;;;;;13.40;12.60;;;4.20;99.90;;;;;;4886625;29;20208;-79
2023/01/10 07:19:47;;;;;;;14.23;13.10;;;4.20;99.90;;;;;;4885651;29;20202;-78
2023/01/10 07:22:14;;;;;;;15.23;14.13;;;4.20;99.90;;;;;;4886472;29;20273;-78
2023/01/10 07:24:41;;;;;;;14.60;13.47;;;4.20;99.90;;;;;;4878781;29;20216;-78
2023/01/10 07:27:08;;;;;;;14.30;13.30;;;4.30;99.90;;;;;;4879952;29;20606;-78
2023/01/10 07:29:35;;;;;;;14.83;13.67;;;4.20;99.90;;;;;;4888566;29;20204;-78
2023/01/10 07:32:04;;;;;;;14.50;13.50;;;4.30;99.90;;;;;;4884828;29;20225;-79
2023/01/10 07:34:31;;;;;;;14.20;13.20;;;4.30;99.90;;;;;;4885424;29;20194;-78
2023/01/10 07:36:57;;;;;;;14.87;13.67;;;4.40;99.90;;;;;;4884677;29;20205;-77
2023/01/10 07:39:24;;;;;;;15.23;13.83;;;4.40;99.90;;;;;;4882606;29;20197;-77
2023/01/10 07:41:52;;;;;;;14.33;13.20;;;4.40;99.90;;;;;;4881256;29;20608;-77
2023/01/10 07:44:21;;;;;;;15.03;13.80;;;4.40;99.90;;;;;;4882270;29;20224;-77
2023/01/10 07:46:48;;;;;;;16.17;14.87;;;4.40;99.90;;;;;;4882776;29;20206;-78
2023/01/10 07:49:19;;;;;;;14.20;13.20;;;4.40;99.90;;;;;;4883050;29;20208;-77
2023/01/10 07:51:46;;;;;;;14.27;13.37;;;4.50;99.90;;;;;;4883041;29;20285;-78
2023/01/10 07:54:13;;;;;;;15.40;14.03;;;4.50;99.90;;;;;;4882088;29;20703;-77
2023/01/10 07:56:40;;;;;;;15.17;13.80;;;4.60;99.90;;;;;;4881377;29;20224;-77
2023/01/10 07:59:07;;;;;;;14.10;13.30;;;4.60;99.90;;;;;;4881234;29;20217;-78
2023/01/10 08:01:34;;;;;;;14.50;13.60;;;4.70;99.90;;;;;;4881783;29;20608;-78
2023/01/10 08:04:00;;;;;;;15.10;13.80;;;4.70;99.90;;;;;;4881251;29;20225;-78
2023/01/10 08:06:29;;;;;;;14.20;13.30;;;4.70;99.90;;;;;;4880406;29;20276;-77
2023/01/10 08:08:55;;;;;;;13.77;12.67;;;4.70;99.90;;;;;;4882306;29;20202;-78
2023/01/10 08:11:22;;;;;;;14.50;13.27;;;4.70;99.90;;;;;;4884384;29;20610;-77
2023/01/10 08:13:49;;;;;;;14.63;13.53;;;4.80;99.90;;;;;;4881633;29;20284;-78
2023/01/10 08:16:16;;;;;;;13.70;12.67;;;4.80;99.90;;;;;;4884802;29;20568;-78
2023/01/10 08:18:42;;;;;;;14.30;13.10;;;4.90;99.90;;;;;;4880979;29;20228;-78
2023/01/10 08:21:10;;;;;;;14.90;13.60;;;4.90;99.90;;;;;;4866453;29;20240;-78
2023/01/10 08:23:38;;;;;;;14.67;13.60;;;4.90;99.90;;;;;;4886391;29;20200;-78
2023/01/10 08:26:05;;;;;;;14.87;13.67;;;4.90;99.90;;;;;;4888121;29;20213;-78
2023/01/10 08:28:32;;;;;;;14.07;13.00;;;4.90;99.90;;;;;;4891733;29;20301;-79
2023/01/10 08:31:04;;;;;;;14.40;13.20;;;5.00;99.90;;;;;;4879523;29;20248;-78
2023/01/10 08:33:31;;;;;;;13.40;12.47;;;5.00;99.90;;;;;;4887736;29;20212;-79
2023/01/10 08:35:57;;;;;;;13.00;12.30;;;5.10;99.90;;;;;;4891246;29;20276;-79
2023/01/10 08:38:24;;;;;;;13.33;12.40;;;5.10;99.90;;;;;;4885109;29;20662;-78
2023/01/10 08:40:55;;;;;;;13.23;12.23;;;5.20;99.90;;;;;;4885629;29;20628;-79
2023/01/10 08:43:22;;;;;;;13.57;12.50;;;5.30;99.90;;;;;;4882455;29;20209;-78
2023/01/10 08:45:49;;;;;;;13.20;12.20;;;5.40;99.90;;;;;;4894648;29;20227;-79
2023/01/10 08:48:16;;;;;;;13.10;12.20;;;5.50;99.90;;;;;;4880070;29;20213;-79
2023/01/10 08:50:46;;;;;;;13.23;12.13;;;5.50;99.90;;;;;;4887053;29;20207;-81
2023/01/10 08:53:13;;;;;;;13.60;12.60;;;5.60;99.90;;;;;;4888024;29;20224;-80
2023/01/10 08:55:40;;;;;;;13.40;12.40;;;5.80;99.90;;;;;;4880692;29;20660;-80
2023/01/10 08:58:09;;;;;;;13.93;12.83;;;5.90;99.90;;;;;;4902941;29;20218;-77
2023/01/10 09:00:36;;;;;;;13.33;12.43;;;5.90;99.90;;;;;;4892513;29;20275;-77
2023/01/10 09:03:21;;;;;;;13.70;12.80;;;5.90;99.90;;;;;;5120111;27;20325;-79
2023/01/10 09:05:48;;;;;;;13.53;12.63;;;5.90;99.90;;;;;;5118535;27;20201;-79
2023/01/10 09:08:15;;;;;;;13.87;12.80;;;5.90;99.90;;;;;;5115714;28;20238;-78
2023/01/10 09:10:41;;;;;;;13.70;12.73;;;5.90;99.90;;;;;;5116963;27;20622;-78
2023/01/10 09:13:08;;;;;;;13.60;12.60;;;6.00;99.90;;;;;;5106199;27;20249;-78
2023/01/10 09:15:37;;;;;;;13.60;12.67;;;6.00;99.90;;;;;;5119433;27;20195;-79
2023/01/10 09:18:05;;;;;;;14.43;13.20;;;6.00;99.90;;;;;;5115211;28;20195;-81
2023/01/10 09:20:35;;;;;;;14.37;13.27;;;6.00;99.90;;;;;;5122283;28;20401;-79
2023/01/10 09:23:07;;;;;;;13.90;12.80;;;6.00;99.90;;;;;;5127289;28;20201;-79
2023/01/10 09:25:34;;;;;;;13.27;12.33;;;6.00;99.90;;;;;;5111597;28;20197;-80
2023/01/10 09:28:02;;;;;;;14.00;12.80;;;6.00;99.90;;;;;;5115026;28;20203;-79
2023/01/10 09:30:30;;;;;;;12.77;11.87;;;6.00;99.90;;;;;;5113240;28;20194;-79
2023/01/10 09:32:58;;;;;;;12.80;11.90;;;6.10;99.90;;;;;;5106021;28;20278;-81
2023/01/10 09:35:27;;;;;;;12.60;11.50;;;6.10;99.90;;;;;;5112914;28;20199;-81
2023/01/10 09:37:56;;;;;;;12.30;11.43;;;6.20;99.90;;;;;;5112151;28;20199;-81
2023/01/10 09:40:37;;;;;;;12.37;11.50;;;6.10;99.90;;;;;;5122646;28;20207;-81
2023/01/10 09:43:15;;;;;;;12.93;11.93;;;6.20;99.90;;;;;;5108024;28;20253;-79
2023/01/10 09:45:51;;;;;;;13.23;12.27;;;6.20;99.90;;;;;;5111692;28;20194;-80
2023/01/10 09:48:24;;;;;;;12.90;12.00;;;6.30;99.90;;;;;;5111643;28;20197;-80
2023/01/10 09:51:04;;;;;;;12.00;11.00;;;6.30;99.90;;;;;;5116397;28;20440;-80
2023/01/10 09:53:34;;;;;;;11.80;10.80;;;6.40;99.90;;;;;;5108125;28;20196;-80
2023/01/10 09:56:01;;;;;;;11.83;10.93;;;6.40;99.90;;;;;;5120621;28;20199;-80
2023/01/10 09:58:31;;;;;;;11.50;10.63;;;6.50;99.90;;;;;;5099116;28;20201;-81
2023/01/10 10:01:01;;;;;;;12.00;11.07;;;6.60;99.90;;;;;;5106490;28;20217;-81
2023/01/10 10:03:32;;;;;;;11.77;10.87;;;6.60;99.90;;;;;;5110199;28;20214;-80
2023/01/10 10:06:00;;;;;;;11.70;10.90;;;6.60;99.90;;;;;;5117688;28;20208;-79
2023/01/10 10:08:27;;;;;;;11.60;10.70;;;6.60;99.90;;;;;;5114419;27;20230;-79
2023/01/10 10:11:10;;;;;;;11.93;10.93;;;6.50;99.90;;;;;;5118519;27;20231;-81
2023/01/10 10:13:48;;;;;;;11.40;10.40;;;6.50;99.90;;;;;;5103664;28;20209;-83
2023/01/10 10:16:30;;;;;;;12.40;11.23;;;6.60;99.90;;;;;;5091963;28;20220;-80
2023/01/10 10:19:07;;;;;;;12.03;11.13;;;6.60;99.90;;;;;;5102253;28;20620;-81
2023/01/10 10:21:48;;;;;;;11.63;10.63;;;6.60;99.90;;;;;;5093685;28;20219;-80
2023/01/10 10:24:30;;;;;;;11.87;10.97;;;6.70;99.90;;;;;;5102945;28;20199;-81
2023/01/10 10:27:07;;;;;;;11.73;10.93;;;6.80;99.90;;;;;;5102265;28;20717;-80
2023/01/10 10:30:19;;;;;;;11.60;10.80;;;6.80;99.90;;;;;;5093927;28;20196;-83
2023/01/10 10:33:01;;;;;;;11.43;10.63;;;6.90;99.90;;;;;;5044015;28;20274;-80
2023/01/10 10:35:32;;;;;;;12.03;11.07;;;6.90;99.90;;;;;;5083569;28;20250;-81
2023/01/10 10:38:04;;;;;;;11.77;11.07;;;7.00;99.90;;;;;;5089918;28;20201;-80
2023/01/10 10:40:34;;;;;;;12.50;11.50;;;7.00;99.90;;;;;;5111610;27;20250;-82
2023/01/10 10:43:11;;;;;;;12.60;11.70;;;7.10;99.90;;;;;;5102627;28;20228;-80
2023/01/10 10:45:44;;;;;;;12.90;12.10;;;7.20;99.90;;;;;;5099722;28;20189;-81
2023/01/10 10:48:15;;;;;;;13.00;12.10;;;7.20;99.90;;;;;;5100622;28;20201;-79
2023/01/10 10:50:50;;;;;;;14.10;12.93;;;7.20;99.90;;;;;;5099390;28;20190;-79
2023/01/10 10:53:18;;;;;;;12.47;11.67;;;7.20;99.90;;;;;;5100702;28;20275;-78
2023/01/10 10:55:45;;;;;;;12.83;11.97;;;7.20;99.90;;;;;;5102449;28;20197;-79
2023/01/10 10:58:14;;;;;;;12.50;11.70;;;7.30;99.90;;;;;;5100617;28;20204;-79
2023/01/10 11:00:41;;;;;;;12.20;11.40;;;7.40;99.90;;;;;;5091283;28;20203;-78
2023/01/10 11:03:22;;;;;;;12.50;11.60;;;7.50;99.90;;;;;;5105081;28;20272;-79
2023/01/10 11:05:49;;;;;;;12.70;11.60;;;7.50;99.90;;;;;;5092808;28;20194;-80
2023/01/10 11:08:18;;;;;;;12.80;11.80;;;7.60;99.90;;;;;;5087881;28;20195;-79
2023/01/10 11:10:48;;;;;;;12.80;11.80;;;7.60;99.90;;;;;;5086271;28;20667;-78
2023/01/10 11:13:27;;;;;;;12.70;11.83;;;7.70;99.90;;;;;;5106553;28;20193;-78
2023/01/10 11:15:54;;;;;;;12.80;11.80;;;7.70;99.90;;;;;;5105907;28;20661;-78
2023/01/10 11:18:22;;;;;;;13.30;12.30;;;7.60;99.90;;;;;;5099916;28;20657;-79
2023/01/10 11:20:56;;;;;;;13.73;12.57;;;7.70;99.90;;;;;;5092271;28;20210;-79
2023/01/10 11:23:27;;;;;;;12.80;12.00;;;7.70;99.90;;;;;;5093944;28;20214;-79
2023/01/10 11:25:54;;;;;;;12.50;11.50;;;7.80;99.90;;;;;;5089018;28;20194;-78
2023/01/10 11:28:28;;;;;;;12.43;11.47;;;7.80;99.90;;;;;;5108011;28;20200;-78
2023/01/10 11:30:56;;;;;;;11.97;11.27;;;7.80;99.90;;;;;;5090644;28;20217;-79
2023/01/10 11:33:28;;;;;;;12.40;11.60;;;7.90;99.90;;;;;;5109072;28;20202;-78
2023/01/10 11:36:01;;;;;;;12.40;11.53;;;7.80;99.90;;;;;;5093627;28;20248;-78
2023/01/10 11:38:29;;;;;;;12.30;11.40;;;7.90;99.90;;;;;;5089329;28;20193;-79
2023/01/10 11:40:59;;;;;;;12.20;11.30;;;7.90;99.90;;;;;;5098761;28;20302;-79
2023/01/10 11:43:31;;;;;;;11.67;10.83;;;7.90;99.90;;;;;;5090221;28;20264;-77
2023/01/10 11:46:02;;;;;;;12.00;11.07;;;7.80;99.90;;;;;;5102609;28;20201;-78
2023/01/10 11:48:43;;;;;;;11.63;10.83;;;7.80;99.90;;;;;;5091308;28;20666;-80
2023/01/10 11:51:19;;;;;;;11.00;10.40;;;7.80;99.90;;;;;;5104148;28;20235;-79
2023/01/10 11:53:49;;;;;;;11.77;10.87;;;7.80;99.90;;;;;;5092582;28;20198;-79
2023/01/10 11:56:24;;;;;;;11.70;10.90;;;7.70;99.90;;;;;;5095291;28;20205;-80
2023/01/10 11:58:53;;;;;;;11.33;10.50;;;7.80;99.90;;;;;;5104791;28;20206;-80
2023/01/10 12:01:28;;;;;;;12.53;11.50;;;7.80;99.90;;;;;;5098048;28;20719;-79
2023/01/10 12:03:56;;;;;;;12.20;11.33;;;7.90;99.90;;;;;;5094977;28;20627;-79
2023/01/10 12:06:23;;;;;;;11.97;11.03;;;7.90;99.90;;;;;;5100164;28;20260;-79
2023/01/10 12:08:54;;;;;;;12.70;11.70;;;7.90;99.90;;;;;;5099699;28;20612;-80
2023/01/10 12:11:27;;;;;;;12.10;11.20;;;7.90;99.90;;;;;;5098765;28;20233;-79
2023/01/10 12:13:57;;;;;;;11.80;11.03;;;7.90;99.90;;;;;;5098506;28;20649;-81
2023/01/10 12:16:26;;;;;;;11.90;11.00;;;8.00;99.90;;;;;;5102685;28;20201;-79
2023/01/10 12:18:56;;;;;;;12.33;11.43;;;8.00;99.90;;;;;;5098380;28;20197;-78
2023/01/10 12:21:38;;;;;;;12.03;11.23;;;8.10;99.90;;;;;;5092959;28;20260;-78
2023/01/10 12:24:12;;;;;;;12.63;11.70;;;8.20;99.90;;;;;;5098606;28;20382;-78
2023/01/10 12:26:39;;;;;;;12.00;11.20;;;8.20;99.90;;;;;;5098927;28;20234;-78
2023/01/10 12:29:15;;;;;;;11.60;10.87;;;8.20;99.90;;;;;;5101026;28;20200;-81
2023/01/10 12:31:42;;;;;;;12.23;11.33;;;8.10;99.90;;;;;;5098696;28;20225;-80
2023/01/10 12:34:18;;;;;;;11.63;10.83;;;8.10;99.90;;;;;;5103325;28;20194;-82
2023/01/10 12:36:54;;;;;;;11.13;10.30;;;8.20;99.90;;;;;;5088761;28;20213;-79
2023/01/10 12:39:23;;;;;;;11.63;10.77;;;8.30;99.90;;;;;;5105039;28;20197;-80
2023/01/10 12:44:46;;;;;;;11.47;10.57;;;8.50;99.90;;;;;;5091963;28;20568;-77
2023/01/10 12:47:30;;;;;;;11.63;10.50;;;8.40;99.90;;;;;;5096081;28;20211;-80
2023/01/10 12:50:00;;;;;;;11.27;10.53;;;8.30;99.90;;;;;;5095328;28;20193;-81
2023/01/10 12:52:33;;;;;;;11.40;10.60;;;8.30;99.90;;;;;;5098977;28;20270;-80
2023/01/10 12:55:02;;;;;;;11.57;10.57;;;8.30;99.90;;;;;;5095884;28;20196;-80
2023/01/10 12:57:32;;;;;;;11.80;10.73;;;8.30;99.90;;;;;;5091625;28;20685;-79
2023/01/10 13:00:03;;;;;;;11.83;10.73;;;8.30;99.90;;;;;;5095998;28;20197;-80
2023/01/10 13:02:42;;;;;;;10.87;10.17;;;8.30;99.90;;;;;;5093274;28;20680;-80
2023/01/10 13:05:18;;;;;;;10.90;10.20;;;8.20;99.90;;;;;;5101991;28;20664;-79
2023/01/10 13:07:46;;;;;;;10.90;10.10;;;8.10;99.90;;;;;;5094687;28;20617;-78
2023/01/10 13:10:16;;;;;;;10.97;10.27;;;8.00;99.90;;;;;;5091725;28;20689;-79
2023/01/10 13:12:47;;;;;;;10.97;10.23;;;7.90;99.90;;;;;;5103501;28;20213;-78
2023/01/10 13:15:22;;;;;;;12.00;11.00;;;7.80;99.90;;;;;;5088454;28;20628;-79
2023/01/10 13:17:53;;;;;;;12.03;10.97;;;7.80;99.90;;;;;;5082896;28;20197;-79
2023/01/10 13:20:48;;;;;;;12.47;11.30;;;7.80;99.90;;;;;;5082176;28;20198;-78
2023/01/10 13:23:28;;;;;;;12.20;11.10;;;7.80;99.90;;;;;;5083097;28;20226;-79
2023/01/10 13:26:13;;;;;;;11.67;10.70;;;7.80;99.90;;;;;;5081587;28;20221;-80
2023/01/10 13:28:53;;;;;;;11.10;10.40;;;7.80;99.90;;;;;;5096654;28;20195;-79
2023/01/10 13:31:27;;;;;;;11.20;10.30;;;7.80;99.90;;;;;;5092892;28;20652;-81
2023/01/10 13:33:57;;;;;;;11.17;10.37;;;7.70;99.90;;;;;;5099395;28;20204;-80
2023/01/10 13:36:27;;;;;;;10.73;10.03;;;7.70;99.90;;;;;;5093502;28;20258;-79
2023/01/10 13:38:57;;;;;;;10.73;10.03;;;7.60;99.90;;;;;;5101594;28;20201;-80
2023/01/10 13:44:20;;;;;;;10.07;9.40;;;7.60;99.90;;;;;;5059262;28;20230;-78
2023/01/10 13:46:50;;;;;;;10.43;9.60;;;7.50;99.90;;;;;;5090250;28;20236;-79
2023/01/10 13:49:47;;;;;;;10.30;9.60;;;7.50;99.90;;;;;;5097334;28;20208;-79
2023/01/10 13:52:28;;;;;;;10.33;9.63;;;7.60;99.90;;;;;;5101230;28;20526;-79
2023/01/10 13:54:56;;;;;;;10.73;9.67;;;7.60;99.90;;;;;;5100012;28;20565;-79
2023/01/10 13:57:58;;;;;;;10.67;9.97;;;7.60;99.90;;;;;;5103736;28;20201;-79
2023/01/10 14:03:52;;;;;;;11.10;10.20;;;7.70;99.90;;;;;;5098563;28;20233;-80
2023/01/10 14:06:40;;;;;;;11.77;10.87;;;7.70;99.90;;;;;;5099980;28;20250;-79
2023/01/10 14:09:33;;;;;;;11.00;10.27;;;7.60;99.90;;;;;;5106357;28;20216;-79
2023/01/10 14:12:03;;;;;;;11.20;10.30;;;7.60;99.90;;;;;;5093636;28;20256;-79
2023/01/10 14:14:33;;;;;;;11.10;10.20;;;7.60;99.90;;;;;;5096436;28;20190;-80
2023/01/10 14:17:13;;;;;;;10.17;9.50;;;7.60;99.90;;;;;;5094038;28;20202;-80
2023/01/10 14:19:43;;;;;;;10.60;9.80;;;7.60;99.90;;;;;;5098999;28;20504;-79
2023/01/10 14:22:26;;;;;;;10.37;9.73;;;7.60;99.90;;;;;;5096932;28;20226;-80
2023/01/10 14:24:54;;;;;;;10.60;9.80;;;7.60;99.90;;;;;;5098340;28;20205;-79
2023/01/10 14:27:22;;;;;;;10.10;9.40;;;7.60;99.90;;;;;;5101416;28;20209;-78
2023/01/10 14:29:52;;;;;;;9.77;8.97;;;7.50;99.90;;;;;;5083271;28;20205;-79
2023/01/10 14:32:33;;;;;;;9.73;8.93;;;7.50;99.90;;;;;;5100818;28;20228;-80
2023/01/10 14:35:05;;;;;;;9.60;8.90;;;7.50;99.90;;;;;;5094243;28;20218;-81
2023/01/10 14:37:37;;;;;;;10.53;9.83;;;7.40;99.90;;;;;;5096280;28;20200;-80
2023/01/10 14:40:10;;;;;;;10.70;10.00;;;7.40;99.90;;;;;;5092346;28;20734;-80
2023/01/10 14:42:38;;;;;;;10.57;9.77;;;7.30;99.90;;;;;;5091535;28;20228;-80
2023/01/10 14:45:19;;;;;;;11.07;10.03;;;7.30;99.90;;;;;;5100246;28;20181;-79
2023/01/10 14:47:48;;;;;;;10.67;9.90;;;7.20;99.90;;;;;;5106922;28;20271;-78
2023/01/10 14:50:27;;;;;;;11.63;10.77;;;7.10;99.90;;;;;;5102060;28;20242;-79
2023/01/10 14:52:55;;;;;;;11.50;10.57;;;7.00;99.90;;;;;;5092817;28;20201;-79
2023/01/10 14:55:22;;;;;;;10.60;9.50;;;7.00;99.90;;;;;;5100050;28;20199;-79
2023/01/10 14:57:56;;;;;;;10.20;9.30;;;6.90;99.90;;;;;;5101119;28;20207;-78
2023/01/10 15:00:29;;;;;;;11.07;10.27;;;6.70;99.90;;;;;;5097587;28;20197;-79
2023/01/10 15:03:00;;;;;;;10.40;9.70;;;6.70;99.90;;;;;;5096009;28;20696;-79
2023/01/10 15:05:31;;;;;;;9.63;8.90;;;6.60;99.90;;;;;;5091226;28;20697;-79
2023/01/10 15:08:17;;;;;;;10.00;9.07;;;6.50;99.90;;;;;;5097382;28;20255;-79
2023/01/10 15:10:46;;;;;;;10.07;9.27;;;6.50;99.90;;;;;;5093797;28;20203;-78
2023/01/10 15:13:16;;;;;;;9.97;9.07;;;6.40;99.90;;;;;;5103785;28;20200;-79
2023/01/10 15:15:46;;;;;;;9.50;8.87;;;6.30;99.90;;;;;;5106876;28;20194;-81
2023/01/10 15:18:28;;;;;;;10.60;9.53;;;6.30;99.90;;;;;;5101311;28;20255;-80
2023/01/10 15:20:57;;;;;;;10.17;9.27;;;6.20;99.90;;;;;;5099581;28;20460;-79
2023/01/10 15:23:26;;;;;;;9.70;9.10;;;6.20;99.90;;;;;;5076966;28;20292;-79
2023/01/10 15:25:57;;;;;;;11.40;10.60;;;6.10;99.90;;;;;;5083507;28;20195;-78
2023/01/10 15:28:26;;;;;;;11.70;10.70;;;6.10;99.90;;;;;;5082998;28;20190;-78
2023/01/10 15:30:56;;;;;;;11.53;10.53;;;6.10;99.90;;;;;;5083267;28;20246;-78
2023/01/10 15:33:27;;;;;;;11.70;10.90;;;6.00;99.90;;;;;;5088706;28;20196;-79
2023/01/10 15:35:56;;;;;;;11.73;10.93;;;6.00;99.90;;;;;;5087570;28;20706;-79
2023/01/10 15:38:29;;;;;;;11.93;10.90;;;6.00;99.90;;;;;;5099656;28;20202;-78
2023/01/10 15:40:57;;;;;;;12.30;11.30;;;5.90;99.90;;;;;;5104906;28;20226;-79
2023/01/10 15:43:26;;;;;;;11.53;10.73;;;5.90;99.90;;;;;;5097443;28;20217;-78
2023/01/10 15:45:55;;;;;;;11.10;10.40;;;5.90;99.90;;;;;;5104446;28;20671;-78
2023/01/10 15:48:27;;;;;;;11.83;10.83;;;5.80;99.90;;;;;;5099710;28;20680;-79
2023/01/10 15:50:58;;;;;;;11.50;10.57;;;5.80;99.90;;;;;;5089369;28;20223;-79
2023/01/10 15:54:01;;;;;;;11.53;10.70;;;5.80;99.90;;;;;;5109662;28;20197;-78
2023/01/10 15:56:32;;;;;;;11.83;10.73;;;5.70;99.90;;;;;;5091337;28;20659;-78
2023/01/10 15:58:59;;;;;;;11.60;10.80;;;5.70;99.90;;;;;;5101630;28;20208;-79
2023/01/10 16:01:26;;;;;;;11.90;10.90;;;5.70;99.90;;;;;;5099573;28;20276;-79
2023/01/10 16:03:55;;;;;;;12.37;11.37;;;5.70;99.90;;;;;;5104606;28;20310;-79
2023/01/10 16:06:27;;;;;;;12.47;11.47;;;5.60;99.90;;;;;;5099552;28;20201;-79
2023/01/10 16:08:56;;;;;;;13.03;11.73;;;5.50;99.90;;;;;;5097449;28;20194;-80